DAL2743 KLAX-KLAS
Flight info
| Callsign | DAL2743 |
|---|---|
| Flight time | 0h 41m |
| Altitude | 23000 |
| Route | OSHNN1 MISEN RNDRZ4 |
| Aircraft | A321/M-SDE3FGHIRWY/LB1 |
Departure
| Time | 2026-05-04 05:48 |
|---|---|
| Airport | Los Angeles International Airport (KLAX) |
Arrival
| Time | 2026-05-04 06:30 |
|---|---|
| Airport | Harry Reid International Airport (KLAS) |
| Time | Latitude | Longitude | Altitude | Speed | Heading |
|---|---|---|---|---|---|
| 2026-05-04 04:55 | 33.94677 | -118.40647 | 93 ft | 0 kts | 263° |
| 2026-05-04 05:38 | 33.94681 | -118.40610 | 93 ft | 3 kts | 270° |
| 2026-05-04 05:38 | 33.94679 | -118.40594 | 93 ft | 3 kts | 332° |
| 2026-05-04 05:38 | 33.94662 | -118.40588 | 93 ft | 2 kts | 354° |
| 2026-05-04 05:38 | 33.94651 | -118.40587 | 92 ft | 2 kts | 354° |
| 2026-05-04 05:39 | 33.94633 | -118.40584 | 92 ft | 2 kts | 354° |
| 2026-05-04 05:39 | 33.94630 | -118.40584 | 95 ft | 0 kts | 354° |
| 2026-05-04 05:42 | 33.94635 | -118.40585 | 92 ft | 3 kts | 354° |
| 2026-05-04 05:43 | 33.94657 | -118.40588 | 93 ft | 3 kts | 354° |
| 2026-05-04 05:43 | 33.94678 | -118.40590 | 93 ft | 3 kts | 354° |
| 2026-05-04 05:43 | 33.94709 | -118.40595 | 94 ft | 6 kts | 354° |
| 2026-05-04 05:45 | 33.94890 | -118.40337 | 96 ft | 7 kts | 83° |
| 2026-05-04 05:45 | 33.94897 | -118.40273 | 95 ft | 8 kts | 83° |
| 2026-05-04 05:47 | 33.95041 | -118.39945 | 94 ft | 7 kts | 291° |
| 2026-05-04 05:47 | 33.95039 | -118.39991 | 94 ft | 0 kts | 262° |
| 2026-05-04 05:47 | 33.95036 | -118.40015 | 95 ft | 13 kts | 262° |
| 2026-05-04 05:48 | 33.94992 | -118.40428 | 97 ft | 84 kts | 263° |
| 2026-05-04 05:48 | 33.94896 | -118.41363 | 99 ft | 138 kts | 263° |
| 2026-05-04 05:48 | 33.94757 | -118.42668 | 215 ft | 169 kts | 261° |
| 2026-05-04 05:48 | 33.94595 | -118.44115 | 734 ft | 174 kts | 261° |
| 2026-05-04 05:49 | 33.94415 | -118.45530 | 1391 ft | 173 kts | 262° |
| 2026-05-04 05:49 | 33.94246 | -118.46964 | 1993 ft | 171 kts | 263° |
| 2026-05-04 05:49 | 33.94095 | -118.48417 | 2364 ft | 179 kts | 263° |
| 2026-05-04 05:49 | 33.93933 | -118.49969 | 2627 ft | 194 kts | 263° |
| 2026-05-04 05:51 | 33.89374 | -118.47035 | 6296 ft | 285 kts | 49° |
| 2026-05-04 05:51 | 33.90776 | -118.45328 | 6974 ft | 289 kts | 41° |
| 2026-05-04 05:52 | 33.92300 | -118.43724 | 7637 ft | 294 kts | 41° |
| 2026-05-04 05:52 | 33.93790 | -118.42005 | 8320 ft | 298 kts | 44° |
| 2026-05-04 05:52 | 33.95202 | -118.40195 | 8983 ft | 302 kts | 50° |
| 2026-05-04 05:52 | 33.96470 | -118.38159 | 9643 ft | 307 kts | 56° |
| 2026-05-04 05:53 | 33.97663 | -118.36000 | 10242 ft | 313 kts | 57° |
| 2026-05-04 05:54 | 34.07501 | -118.18193 | 13228 ft | 388 kts | 56° |
| 2026-05-04 05:55 | 34.09040 | -118.15498 | 13829 ft | 392 kts | 56° |
| 2026-05-04 05:55 | 34.10594 | -118.12766 | 14332 ft | 397 kts | 56° |
| 2026-05-04 05:55 | 34.12166 | -118.09989 | 14777 ft | 403 kts | 56° |
| 2026-05-04 05:55 | 34.13754 | -118.07171 | 15240 ft | 409 kts | 56° |
| 2026-05-04 05:56 | 34.15367 | -118.04297 | 15657 ft | 416 kts | 56° |
| 2026-05-04 05:56 | 34.16985 | -118.01412 | 16095 ft | 422 kts | 56° |
| 2026-05-04 05:56 | 34.18647 | -117.98455 | 16562 ft | 428 kts | 56° |
| 2026-05-04 05:56 | 34.20337 | -117.95454 | 17022 ft | 434 kts | 55° |
| 2026-05-04 05:57 | 34.22050 | -117.92412 | 17473 ft | 440 kts | 55° |
| 2026-05-04 05:57 | 34.23786 | -117.89327 | 17919 ft | 447 kts | 54° |
| 2026-05-04 05:57 | 34.25543 | -117.86200 | 18368 ft | 452 kts | 55° |
| 2026-05-04 05:57 | 34.27317 | -117.83039 | 18752 ft | 456 kts | 55° |
| 2026-05-04 05:58 | 34.29103 | -117.79850 | 19158 ft | 460 kts | 55° |
| 2026-05-04 05:58 | 34.30881 | -117.76676 | 19612 ft | 462 kts | 56° |
| 2026-05-04 05:58 | 34.32689 | -117.73440 | 19990 ft | 466 kts | 55° |
| 2026-05-04 05:58 | 34.34512 | -117.70171 | 20404 ft | 469 kts | 55° |
| 2026-05-04 05:59 | 34.36354 | -117.66905 | 20815 ft | 471 kts | 54° |
| 2026-05-04 05:59 | 34.37299 | -117.65278 | 20997 ft | 473 kts | 53° |
| 2026-05-04 05:59 | 34.39254 | -117.61993 | 21369 ft | 476 kts | 52° |
| 2026-05-04 05:59 | 34.41196 | -117.58790 | 21736 ft | 479 kts | 52° |
| 2026-05-04 06:00 | 34.43179 | -117.55531 | 22129 ft | 482 kts | 52° |
| 2026-05-04 06:00 | 34.45171 | -117.52247 | 22567 ft | 483 kts | 52° |
| 2026-05-04 06:00 | 34.47156 | -117.48949 | 22935 ft | 485 kts | 52° |
| 2026-05-04 06:00 | 34.49134 | -117.45637 | 22999 ft | 484 kts | 53° |
| 2026-05-04 06:01 | 34.51098 | -117.42325 | 23030 ft | 483 kts | 53° |
| 2026-05-04 06:01 | 34.53055 | -117.39008 | 23029 ft | 483 kts | 53° |
| 2026-05-04 06:03 | 34.66743 | -117.15867 | 22893 ft | 483 kts | 53° |
| 2026-05-04 06:03 | 34.68696 | -117.12543 | 22905 ft | 483 kts | 53° |
| 2026-05-04 06:05 | 34.82588 | -116.88889 | 22948 ft | 519 kts | 53° |
| 2026-05-04 06:05 | 34.86837 | -116.81623 | 22909 ft | 529 kts | 54° |
| 2026-05-04 06:05 | 34.88943 | -116.78014 | 22905 ft | 529 kts | 54° |
| 2026-05-04 06:06 | 34.91080 | -116.74344 | 22907 ft | 530 kts | 54° |
| 2026-05-04 06:06 | 34.93212 | -116.70670 | 22901 ft | 530 kts | 54° |
| 2026-05-04 06:06 | 34.95323 | -116.66979 | 22891 ft | 530 kts | 54° |
| 2026-05-04 06:06 | 34.97385 | -116.63324 | 22885 ft | 530 kts | 55° |
| 2026-05-04 06:07 | 34.99464 | -116.59611 | 22676 ft | 529 kts | 55° |
| 2026-05-04 06:07 | 35.01537 | -116.55899 | 22405 ft | 526 kts | 55° |
| 2026-05-04 06:07 | 35.03594 | -116.52216 | 22130 ft | 522 kts | 55° |
| 2026-05-04 06:07 | 35.05618 | -116.48604 | 21854 ft | 519 kts | 55° |
| 2026-05-04 06:08 | 35.07654 | -116.44977 | 21594 ft | 516 kts | 55° |
| 2026-05-04 06:08 | 35.09701 | -116.41384 | 21340 ft | 513 kts | 52° |
| 2026-05-04 06:08 | 35.12013 | -116.38089 | 21081 ft | 508 kts | 44° |
| 2026-05-04 06:08 | 35.14455 | -116.34960 | 20835 ft | 506 kts | 45° |
| 2026-05-04 06:09 | 35.16843 | -116.31885 | 20623 ft | 503 kts | 45° |
| 2026-05-04 06:09 | 35.19238 | -116.28781 | 20373 ft | 500 kts | 45° |
| 2026-05-04 06:11 | 35.35045 | -116.07349 | 18703 ft | 452 kts | 47° |
| 2026-05-04 06:11 | 35.37098 | -116.04508 | 18476 ft | 440 kts | 47° |
| 2026-05-04 06:13 | 35.50342 | -115.86275 | 16708 ft | 390 kts | 49° |
| 2026-05-04 06:14 | 35.60816 | -115.71796 | 15217 ft | 358 kts | 49° |
| 2026-05-04 06:14 | 35.62478 | -115.69549 | 14971 ft | 352 kts | 49° |
| 2026-05-04 06:15 | 35.64119 | -115.67347 | 14734 ft | 346 kts | 49° |
| 2026-05-04 06:15 | 35.65735 | -115.65179 | 14496 ft | 342 kts | 50° |
| 2026-05-04 06:15 | 35.67319 | -115.63049 | 14253 ft | 339 kts | 50° |
| 2026-05-04 06:15 | 35.68903 | -115.60913 | 14017 ft | 335 kts | 50° |
| 2026-05-04 06:16 | 35.70469 | -115.58796 | 13785 ft | 333 kts | 50° |
| 2026-05-04 06:16 | 35.72044 | -115.56716 | 13539 ft | 331 kts | 46° |
| 2026-05-04 06:16 | 35.73833 | -115.54926 | 13273 ft | 332 kts | 36° |
| 2026-05-04 06:16 | 35.75795 | -115.53496 | 13019 ft | 332 kts | 31° |
| 2026-05-04 06:17 | 35.77794 | -115.52103 | 12945 ft | 328 kts | 31° |
| 2026-05-04 06:17 | 35.79801 | -115.50698 | 13033 ft | 332 kts | 31° |
| 2026-05-04 06:17 | 35.81806 | -115.49290 | 13030 ft | 331 kts | 31° |
| 2026-05-04 06:17 | 35.83811 | -115.47884 | 13029 ft | 331 kts | 31° |
| 2026-05-04 06:18 | 35.85813 | -115.46484 | 13035 ft | 331 kts | 31° |
| 2026-05-04 06:18 | 35.87817 | -115.45079 | 13034 ft | 331 kts | 31° |
| 2026-05-04 06:18 | 35.89820 | -115.43673 | 13035 ft | 331 kts | 31° |
| 2026-05-04 06:20 | 36.01166 | -115.31117 | 10656 ft | 303 kts | 85° |
| 2026-05-04 06:20 | 36.01297 | -115.28569 | 10401 ft | 294 kts | 98° |
| 2026-05-04 06:21 | 36.00792 | -115.18605 | 9424 ft | 284 kts | 98° |
| 2026-05-04 06:21 | 36.00676 | -115.16220 | 9313 ft | 272 kts | 99° |
| 2026-05-04 06:22 | 36.00568 | -115.13961 | 9195 ft | 262 kts | 99° |
| 2026-05-04 06:22 | 36.00458 | -115.11717 | 9081 ft | 260 kts | 99° |
| 2026-05-04 06:25 | 36.06899 | -114.89114 | 5761 ft | 258 kts | 339° |
| 2026-05-04 06:25 | 36.08669 | -114.90823 | 5321 ft | 237 kts | 290° |
| 2026-05-04 06:26 | 36.08906 | -114.92122 | 5136 ft | 225 kts | 264° |
| 2026-05-04 06:26 | 36.08398 | -114.93841 | 4885 ft | 214 kts | 237° |
| 2026-05-04 06:26 | 36.07704 | -114.95436 | 4663 ft | 206 kts | 250° |
| 2026-05-04 06:26 | 36.07438 | -114.97104 | 4431 ft | 189 kts | 263° |
| 2026-05-04 06:27 | 36.07367 | -115.02819 | 3601 ft | 155 kts | 267° |
| 2026-05-04 06:28 | 36.07366 | -115.04127 | 3406 ft | 154 kts | 267° |
| 2026-05-04 06:28 | 36.07366 | -115.05455 | 3226 ft | 154 kts | 269° |
| 2026-05-04 06:28 | 36.07366 | -115.06781 | 3051 ft | 155 kts | 269° |
| 2026-05-04 06:28 | 36.07364 | -115.08114 | 2829 ft | 159 kts | 268° |
| 2026-05-04 06:29 | 36.07374 | -115.09469 | 2668 ft | 155 kts | 266° |
| 2026-05-04 06:29 | 36.07376 | -115.10805 | 2529 ft | 154 kts | 265° |
| 2026-05-04 06:29 | 36.07366 | -115.12131 | 2323 ft | 154 kts | 267° |
| 2026-05-04 06:29 | 36.07370 | -115.13431 | 2190 ft | 144 kts | 267° |
| 2026-05-04 06:30 | 36.07366 | -115.14438 | 2192 ft | 89 kts | 270° |
| 2026-05-04 06:30 | 36.07365 | -115.14995 | 2188 ft | 40 kts | 270° |
| 2026-05-04 06:30 | 36.07376 | -115.15237 | 2187 ft | 26 kts | 281° |
| 2026-05-04 06:30 | 36.07430 | -115.15420 | 2190 ft | 13 kts | 297° |
| 2026-05-04 06:31 | 36.07462 | -115.15491 | 2190 ft | 9 kts | 300° |
| 2026-05-04 06:31 | 36.07495 | -115.15551 | 2188 ft | 8 kts | 314° |
| 2026-05-04 06:31 | 36.07520 | -115.15585 | 2188 ft | 0 kts | 310° |
| 2026-05-04 06:32 | 36.07526 | -115.15594 | 2188 ft | 6 kts | 310° |
| 2026-05-04 06:33 | 36.07804 | -115.15671 | 2188 ft | 9 kts | 90° |
| 2026-05-04 06:34 | 36.07804 | -115.15571 | 2188 ft | 12 kts | 90° |
| 2026-05-04 06:34 | 36.07805 | -115.15477 | 2189 ft | 10 kts | 90° |
| 2026-05-04 06:34 | 36.07805 | -115.15392 | 2189 ft | 10 kts | 90° |
| 2026-05-04 06:34 | 36.07805 | -115.15313 | 2189 ft | 9 kts | 90° |
| 2026-05-04 06:35 | 36.07805 | -115.15245 | 2189 ft | 8 kts | 90° |
| 2026-05-04 06:36 | 36.07778 | -115.14698 | 2188 ft | 9 kts | 95° |
| 2026-05-04 06:37 | 36.07772 | -115.14612 | 2188 ft | 10 kts | 95° |
| 2026-05-04 06:37 | 36.07767 | -115.14537 | 2189 ft | 8 kts | 95° |
| 2026-05-04 06:37 | 36.07762 | -115.14468 | 2188 ft | 9 kts | 95° |
| 2026-05-04 06:37 | 36.07755 | -115.14359 | 2189 ft | 15 kts | 94° |
| 2026-05-04 06:38 | 36.07753 | -115.14243 | 2188 ft | 13 kts | 89° |
| 2026-05-04 06:38 | 36.07781 | -115.14159 | 2191 ft | 10 kts | 20° |
| 2026-05-04 06:40 | 36.07986 | -115.14153 | 2191 ft | 3 kts | 17° |
| 2026-05-04 06:40 | 36.08001 | -115.14147 | 2189 ft | 2 kts | 17° |
| 2026-05-04 06:40 | 36.08009 | -115.14144 | 2188 ft | 1 kts | 20° |
| 2026-05-04 06:40 | 36.08022 | -115.14133 | 2191 ft | 4 kts | 44° |
| 2026-05-04 06:41 | 36.08029 | -115.14109 | 2189 ft | 2 kts | 82° |
| 2026-05-04 06:41 | 36.08028 | -115.14095 | 2189 ft | 1 kts | 94° |
| 2026-05-04 06:41 | 36.08028 | -115.14088 | 2190 ft | 0 kts | 94° |
| 2026-05-04 06:41 | 36.08027 | -115.14075 | 2188 ft | 1 kts | 95° |
| 2026-05-04 06:42 | 36.08026 | -115.14066 | 2188 ft | 1 kts | 95° |
| 2026-05-04 06:42 | 36.08026 | -115.14062 | 2188 ft | 1 kts | 95° |
| 2026-05-04 06:42 | 36.08025 | -115.14058 | 2191 ft | 1 kts | 95° |
| 2026-05-04 06:44 | 36.08025 | -115.14057 | 2191 ft | 0 kts | 95° |